< < Back
Terminal Aerodrome Forecast


Current Version              Previous Versions:   1  2  3  4  5  6  7  8  9  

Terminal Aerodrome Forecast

744
FTUS44 KBMX 282332
TAFTCL
TAF
KTCL 282332Z 2900/2924 23006KT P6SM BKN050
     FM290600 19004KT P6SM BKN015
     FM291500 23008KT P6SM VCSH BKN035
     FM291800 25008KT P6SM VCTS BKN050CB=

Latest METAR

811
SAUS70 KWBC 290300 RRM
MTRTCL
METAR KTCL 290253Z AUTO 20003KT 10SM CLR 24/23 A3000 RMK AO2 SLP156
T02440233 53008


USA.gov is the U.S. government's official web portal to all federal, state and local government web resources and services.